Time;durP1;ratioP1;P1;durP2;ratioP2;P2;SDS_P1;SDS_P2;PMS_P1;PMS_P2;Temp;Humidity;BMP_temperature;BMP_pressure;BME280_temperature;BME280_humidity;BME280_pressure;Samples;Min_cycle;Max_cycle;Signal;HPM_P1;HPM_P2
2023/01/24 00:00:11;;;;;;;33.40;11.97;;;;;;;;;;5010717;28;20026;-79
2023/01/24 00:02:37;;;;;;;26.23;12.37;;;;;;;;;;5008861;28;20030;-77
2023/01/24 00:05:04;;;;;;;26.30;12.07;;;;;;;;;;5008991;28;20153;-77
2023/01/24 00:07:30;;;;;;;29.30;11.97;;;;;;;;;;5008661;28;20034;-76
2023/01/24 00:09:56;;;;;;;28.40;12.50;;;;;;;;;;5010528;28;20022;-77
2023/01/24 00:12:22;;;;;;;28.43;11.90;;;;;;;;;;5010336;28;20033;-76
2023/01/24 00:14:48;;;;;;;24.03;11.80;;;;;;;;;;5009066;28;20030;-76
2023/01/24 00:17:13;;;;;;;28.20;12.73;;;;;;;;;;5010273;28;20034;-76
2023/01/24 00:19:40;;;;;;;27.30;11.23;;;;;;;;;;5009916;28;20410;-76
2023/01/24 00:22:08;;;;;;;28.03;11.40;;;;;;;;;;5009457;28;20064;-77
2023/01/24 00:24:34;;;;;;;27.53;11.57;;;;;;;;;;5010234;28;20125;-77
2023/01/24 00:27:01;;;;;;;27.17;11.40;;;;;;;;;;5017002;28;20057;-76
2023/01/24 00:29:26;;;;;;;26.57;11.10;;;;;;;;;;5020139;28;20024;-76
2023/01/24 00:31:52;;;;;;;26.37;12.03;;;;;;;;;;5010310;28;20585;-78
2023/01/24 00:34:17;;;;;;;32.67;12.57;;;;;;;;;;5010434;28;20091;-77
2023/01/24 00:36:43;;;;;;;29.70;12.50;;;;;;;;;;5008745;28;20034;-77
2023/01/24 00:39:10;;;;;;;29.40;13.57;;;;;;;;;;5024298;28;20041;-78
2023/01/24 00:41:36;;;;;;;29.27;11.87;;;;;;;;;;5030109;28;20030;-76
2023/01/24 00:44:01;;;;;;;37.03;13.57;;;;;;;;;;5030201;28;20088;-77
2023/01/24 00:46:27;;;;;;;23.00;11.10;;;;;;;;;;5030049;28;20084;-78
2023/01/24 00:48:52;;;;;;;27.93;12.40;;;;;;;;;;5029700;28;20120;-78
2023/01/24 00:51:18;;;;;;;30.53;12.80;;;;;;;;;;5028427;28;20026;-77
2023/01/24 00:53:43;;;;;;;29.80;11.87;;;;;;;;;;5028160;28;20052;-76
2023/01/24 00:56:09;;;;;;;33.83;13.90;;;;;;;;;;5028406;28;20034;-77
2023/01/24 00:58:34;;;;;;;28.60;11.83;;;;;;;;;;5028942;28;20021;-76
2023/01/24 01:01:03;;;;;;;34.17;13.70;;;;;;;;;;5030465;28;20041;-76
2023/01/24 01:03:30;;;;;;;29.63;13.97;;;;;;;;;;5029751;28;20033;-77
2023/01/24 01:06:15;;;;;;;31.00;12.27;;;;;;;;;;5012774;28;20038;-77
2023/01/24 01:08:42;;;;;;;30.80;13.47;;;;;;;;;;5030245;28;20063;-78
2023/01/24 01:11:07;;;;;;;31.53;12.27;;;;;;;;;;5029068;28;20124;-77
2023/01/24 01:13:33;;;;;;;33.90;13.00;;;;;;;;;;5029009;28;20124;-77
2023/01/24 01:16:12;;;;;;;34.47;11.87;;;;;;;;;;5029993;28;20048;-77
2023/01/24 01:18:39;;;;;;;33.93;13.30;;;;;;;;;;5012798;28;20033;-77
2023/01/24 01:21:05;;;;;;;38.60;13.37;;;;;;;;;;5028804;28;20040;-76
2023/01/24 01:23:31;;;;;;;26.90;12.57;;;;;;;;;;5030066;28;20040;-77
2023/01/24 01:26:05;;;;;;;32.10;12.67;;;;;;;;;;5029636;28;20034;-77
2023/01/24 01:28:31;;;;;;;30.23;12.40;;;;;;;;;;5012686;28;20141;-78
2023/01/24 01:30:57;;;;;;;35.23;13.37;;;;;;;;;;5027757;28;20021;-77
2023/01/24 01:33:22;;;;;;;33.40;12.53;;;;;;;;;;5029209;28;20769;-78
2023/01/24 01:35:49;;;;;;;33.47;11.73;;;;;;;;;;5027656;28;20099;-77
2023/01/24 01:38:16;;;;;;;34.23;12.63;;;;;;;;;;5021570;28;20130;-76
2023/01/24 01:40:42;;;;;;;40.70;14.43;;;;;;;;;;5009724;28;20681;-77
2023/01/24 01:43:19;;;;;;;32.47;12.63;;;;;;;;;;5008409;28;20064;-77
2023/01/24 01:45:50;;;;;;;31.00;13.33;;;;;;;;;;5008339;28;20121;-77
2023/01/24 01:48:25;;;;;;;31.87;12.57;;;;;;;;;;5008025;28;20038;-77
2023/01/24 01:51:02;;;;;;;32.43;12.27;;;;;;;;;;5010789;28;20033;-78
2023/01/24 01:53:34;;;;;;;31.40;13.73;;;;;;;;;;5012417;28;20060;-77
2023/01/24 01:56:09;;;;;;;48.30;17.20;;;;;;;;;;5013826;28;20065;-78
2023/01/24 01:58:35;;;;;;;33.67;13.20;;;;;;;;;;5013648;28;20468;-78
2023/01/24 02:01:01;;;;;;;29.87;12.40;;;;;;;;;;5013607;28;20025;-78
2023/01/24 02:03:43;;;;;;;29.87;11.80;;;;;;;;;;5014798;28;20065;-77
2023/01/24 02:06:54;;;;;;;30.98;12.52;;;;;;;;;;5013567;28;20085;-77
2023/01/24 02:09:23;;;;;;;33.07;14.10;;;;;;;;;;5004861;28;20478;-77
2023/01/24 02:11:51;;;;;;;27.83;11.23;;;;;;;;;;5014842;28;20037;-76
2023/01/24 02:17:04;;;;;;;27.33;13.00;;;;;;;;;;5013483;28;20140;-77
2023/01/24 02:19:47;;;;;;;29.90;11.40;;;;;;;;;;5012466;28;20117;-78
2023/01/24 02:22:37;;;;;;;29.30;12.73;;;;;;;;;;5012042;28;20127;-76
2023/01/24 02:25:23;;;;;;;41.80;14.97;;;;;;;;;;5013397;28;20065;-78
2023/01/24 02:27:49;;;;;;;28.80;12.43;;;;;;;;;;5011081;28;20133;-78
2023/01/24 02:30:15;;;;;;;32.30;13.03;;;;;;;;;;5011325;28;20064;-77
2023/01/24 02:32:40;;;;;;;34.23;12.70;;;;;;;;;;5011520;28;20131;-77
2023/01/24 02:35:06;;;;;;;29.17;12.80;;;;;;;;;;5011812;28;20029;-76
2023/01/24 02:37:36;;;;;;;28.00;11.00;;;;;;;;;;5014915;28;20097;-77
2023/01/24 02:40:06;;;;;;;32.10;12.70;;;;;;;;;;5013000;28;20429;-78
2023/01/24 02:42:37;;;;;;;28.47;12.37;;;;;;;;;;5012927;28;20071;-77
2023/01/24 02:45:18;;;;;;;29.83;11.70;;;;;;;;;;5012177;28;20069;-77
2023/01/24 02:47:46;;;;;;;29.83;12.80;;;;;;;;;;5011921;28;20042;-78
2023/01/24 02:50:12;;;;;;;32.10;12.93;;;;;;;;;;5011791;28;20271;-77
2023/01/24 02:55:22;;;;;;;31.13;13.47;;;;;;;;;;5012514;28;20036;-76
2023/01/24 02:58:05;;;;;;;28.40;11.17;;;;;;;;;;5012127;28;20025;-76
2023/01/24 03:00:36;;;;;;;32.63;11.57;;;;;;;;;;5010086;28;20029;-78
2023/01/24 03:03:04;;;;;;;35.57;13.13;;;;;;;;;;5013536;28;20030;-78
2023/01/24 03:08:35;;;;;;;31.00;10.93;;;;;;;;;;5009205;28;20056;-77
2023/01/24 03:11:00;;;;;;;29.53;12.07;;;;;;;;;;5005579;28;20056;-78
2023/01/24 03:35:21;;;;;;;28.03;11.37;;;;;;;;;;5011535;28;20164;-76
2023/01/24 03:40:31;;;;;;;30.90;11.60;;;;;;;;;;5030674;28;20097;-77
2023/01/24 03:42:56;;;;;;;32.93;13.60;;;;;;;;;;5030730;28;20021;-77
2023/01/24 03:45:30;;;;;;;32.67;12.13;;;;;;;;;;5030945;28;20037;-77
2023/01/24 03:47:58;;;;;;;31.97;11.53;;;;;;;;;;5030126;28;20041;-77
2023/01/24 03:53:15;;;;;;;28.47;11.63;;;;;;;;;;5030378;28;20044;-77
2023/01/24 03:55:40;;;;;;;29.17;11.90;;;;;;;;;;5028042;28;20481;-77
2023/01/24 03:58:07;;;;;;;34.70;13.13;;;;;;;;;;5028063;28;20048;-77
2023/01/24 04:00:34;;;;;;;31.33;11.70;;;;;;;;;;5028391;28;20040;-77
2023/01/24 04:03:00;;;;;;;31.80;12.37;;;;;;;;;;5030007;28;20037;-77
2023/01/24 04:05:26;;;;;;;31.83;11.30;;;;;;;;;;5028789;28;20034;-77
2023/01/24 04:07:55;;;;;;;34.87;13.17;;;;;;;;;;5029493;28;20119;-77
2023/01/24 04:10:22;;;;;;;33.03;12.13;;;;;;;;;;5030864;28;20032;-78
2023/01/24 04:12:47;;;;;;;29.57;11.80;;;;;;;;;;5029957;28;20031;-77
2023/01/24 04:15:19;;;;;;;33.23;11.90;;;;;;;;;;5030258;28;20029;-78
2023/01/24 04:17:46;;;;;;;33.60;12.70;;;;;;;;;;5029995;28;20029;-77
2023/01/24 04:20:13;;;;;;;29.37;13.53;;;;;;;;;;5028353;28;20113;-77
2023/01/24 04:22:39;;;;;;;33.47;12.27;;;;;;;;;;5012576;28;20077;-79
2023/01/24 04:25:05;;;;;;;30.67;11.53;;;;;;;;;;5028520;28;20039;-76
2023/01/24 04:27:31;;;;;;;34.47;12.00;;;;;;;;;;5029845;28;20385;-77
2023/01/24 04:29:56;;;;;;;25.83;11.87;;;;;;;;;;5029292;28;20024;-76
2023/01/24 04:32:22;;;;;;;31.80;12.13;;;;;;;;;;5030346;28;20057;-78
2023/01/24 04:34:47;;;;;;;33.20;11.87;;;;;;;;;;5028658;28;20112;-78
2023/01/24 04:37:13;;;;;;;28.03;10.77;;;;;;;;;;5029749;28;20473;-77
2023/01/24 04:39:38;;;;;;;28.10;11.47;;;;;;;;;;5009102;28;20057;-77
2023/01/24 04:42:05;;;;;;;28.43;11.80;;;;;;;;;;5010281;28;20465;-77
2023/01/24 04:44:31;;;;;;;34.43;12.33;;;;;;;;;;5008560;28;20439;-78
2023/01/24 04:46:57;;;;;;;31.07;12.03;;;;;;;;;;5008018;28;20057;-77
2023/01/24 04:49:22;;;;;;;28.77;12.13;;;;;;;;;;5009846;28;20034;-77
2023/01/24 04:51:50;;;;;;;26.00;10.97;;;;;;;;;;5008464;28;20498;-77
2023/01/24 04:54:16;;;;;;;32.20;12.50;;;;;;;;;;5008732;28;20033;-76
2023/01/24 04:56:42;;;;;;;32.67;12.20;;;;;;;;;;5008104;28;20556;-76
2023/01/24 04:59:10;;;;;;;35.77;12.40;;;;;;;;;;5007976;28;20030;-76
2023/01/24 05:01:35;;;;;;;30.50;12.13;;;;;;;;;;5009548;28;20037;-77
2023/01/24 05:04:01;;;;;;;33.63;12.20;;;;;;;;;;5009404;28;20045;-77
2023/01/24 05:06:30;;;;;;;25.17;11.83;;;;;;;;;;5007977;28;20077;-77
2023/01/24 05:08:56;;;;;;;29.30;11.87;;;;;;;;;;5007998;28;20048;-77
2023/01/24 05:11:22;;;;;;;32.70;11.57;;;;;;;;;;5009521;28;20030;-77
2023/01/24 05:13:49;;;;;;;33.33;13.90;;;;;;;;;;5010274;28;20033;-77
2023/01/24 05:16:15;;;;;;;29.93;12.30;;;;;;;;;;5009353;28;20088;-77
2023/01/24 05:18:40;;;;;;;30.33;12.40;;;;;;;;;;4991724;28;20113;-78
2023/01/24 05:21:08;;;;;;;32.03;11.93;;;;;;;;;;5009369;28;20094;-77
2023/01/24 05:23:34;;;;;;;29.57;11.77;;;;;;;;;;5008790;28;20038;-77
2023/01/24 05:26:00;;;;;;;35.40;12.83;;;;;;;;;;5013631;28;20030;-77
2023/01/24 05:28:36;;;;;;;26.87;11.77;;;;;;;;;;5014452;28;20029;-77
2023/01/24 05:31:04;;;;;;;35.97;12.10;;;;;;;;;;5013165;28;20103;-76
2023/01/24 05:33:30;;;;;;;34.60;12.47;;;;;;;;;;5022049;28;20029;-77
2023/01/24 05:36:02;;;;;;;30.87;12.10;;;;;;;;;;5032168;28;20146;-79
2023/01/24 05:38:28;;;;;;;29.87;11.57;;;;;;;;;;5025705;28;20041;-79
2023/01/24 05:41:00;;;;;;;30.57;11.77;;;;;;;;;;5023921;28;20048;-76
2023/01/24 05:43:26;;;;;;;30.45;12.18;;;;;;;;;;5013608;28;20041;-77
2023/01/24 05:45:57;;;;;;;29.70;12.17;;;;;;;;;;5030597;28;20497;-78
2023/01/24 05:48:23;;;;;;;31.53;12.27;;;;;;;;;;5029749;28;20030;-76
2023/01/24 05:50:49;;;;;;;29.23;12.03;;;;;;;;;;5030645;28;20021;-77
2023/01/24 05:53:17;;;;;;;27.13;11.20;;;;;;;;;;5026323;28;20480;-78
2023/01/24 05:55:43;;;;;;;30.10;11.47;;;;;;;;;;5027134;28;20251;-77
2023/01/24 05:58:08;;;;;;;31.73;11.47;;;;;;;;;;5011177;28;20026;-78
2023/01/24 06:00:34;;;;;;;30.10;12.47;;;;;;;;;;5031705;28;20036;-76
2023/01/24 06:03:03;;;;;;;31.47;11.63;;;;;;;;;;5031245;28;20614;-76
2023/01/24 06:05:28;;;;;;;27.37;11.97;;;;;;;;;;5030222;28;20103;-75
2023/01/24 06:07:54;;;;;;;28.80;10.53;;;;;;;;;;5031286;28;20037;-76
2023/01/24 06:10:19;;;;;;;30.20;11.23;;;;;;;;;;5032468;28;20075;-75
2023/01/24 06:12:45;;;;;;;32.30;13.27;;;;;;;;;;5023172;28;20037;-76
2023/01/24 06:15:10;;;;;;;28.73;11.70;;;;;;;;;;5031177;28;20044;-78
2023/01/24 06:17:36;;;;;;;29.90;11.80;;;;;;;;;;5028552;28;20029;-78
2023/01/24 06:20:03;;;;;;;30.27;12.60;;;;;;;;;;5029939;28;20025;-75
2023/01/24 06:22:51;;;;;;;26.57;11.50;;;;;;;;;;5029630;28;20026;-77
2023/01/24 06:25:21;;;;;;;30.13;10.57;;;;;;;;;;5027294;28;20378;-77
2023/01/24 06:27:48;;;;;;;29.73;13.27;;;;;;;;;;5027464;28;20037;-75
2023/01/24 06:30:14;;;;;;;30.00;12.07;;;;;;;;;;5007496;28;20064;-77
2023/01/24 06:33:17;;;;;;;35.37;12.83;;;;;;;;;;5030400;28;20040;-77
2023/01/24 06:36:06;;;;;;;23.33;10.47;;;;;;;;;;5028923;28;20542;-76
2023/01/24 06:38:32;;;;;;;30.93;12.57;;;;;;;;;;5029279;28;20032;-76
2023/01/24 06:41:01;;;;;;;29.13;11.87;;;;;;;;;;5030793;28;20037;-74
2023/01/24 06:43:27;;;;;;;24.27;10.80;;;;;;;;;;5028415;28;20539;-78
2023/01/24 06:45:53;;;;;;;27.53;10.33;;;;;;;;;;5013988;28;20051;-77
2023/01/24 06:48:19;;;;;;;28.43;11.13;;;;;;;;;;5028425;28;20342;-77
2023/01/24 06:50:45;;;;;;;29.23;12.03;;;;;;;;;;5029466;28;20033;-76
2023/01/24 06:53:11;;;;;;;26.47;10.27;;;;;;;;;;5020159;28;20041;-74
2023/01/24 06:55:37;;;;;;;29.70;11.63;;;;;;;;;;5025900;28;20040;-75
2023/01/24 06:58:04;;;;;;;28.30;10.80;;;;;;;;;;5028088;28;20452;-77
2023/01/24 07:00:30;;;;;;;29.93;12.43;;;;;;;;;;5032417;28;20167;-78
2023/01/24 07:03:07;;;;;;;26.03;11.40;;;;;;;;;;5028993;28;20570;-76
2023/01/24 07:05:34;;;;;;;34.17;12.27;;;;;;;;;;5037588;28;20029;-77
2023/01/24 07:08:00;;;;;;;29.93;13.00;;;;;;;;;;5045574;28;20089;-74
2023/01/24 07:10:26;;;;;;;34.03;12.07;;;;;;;;;;5032493;28;20115;-78
2023/01/24 07:12:51;;;;;;;28.27;12.13;;;;;;;;;;5013195;28;20040;-79
2023/01/24 07:15:17;;;;;;;29.50;11.43;;;;;;;;;;5026442;28;20025;-74
2023/01/24 07:17:46;;;;;;;24.77;10.47;;;;;;;;;;5026554;28;20032;-77
2023/01/24 07:20:13;;;;;;;26.57;11.83;;;;;;;;;;5027639;28;20028;-76
2023/01/24 07:22:41;;;;;;;31.13;13.40;;;;;;;;;;5029642;28;20033;-77
2023/01/24 07:25:19;;;;;;;31.03;11.40;;;;;;;;;;5030215;28;20375;-76
2023/01/24 07:27:46;;;;;;;26.10;11.00;;;;;;;;;;5027416;28;20030;-76
2023/01/24 07:30:12;;;;;;;28.13;11.17;;;;;;;;;;5028716;28;20021;-76
2023/01/24 07:32:38;;;;;;;24.33;10.77;;;;;;;;;;5029008;28;20059;-76
2023/01/24 07:35:06;;;;;;;26.30;12.17;;;;;;;;;;5029045;28;20420;-78
2023/01/24 07:37:32;;;;;;;24.40;11.67;;;;;;;;;;5026437;28;20135;-77
2023/01/24 07:39:57;;;;;;;24.67;10.03;;;;;;;;;;5027638;28;20423;-77
2023/01/24 07:42:23;;;;;;;25.47;11.27;;;;;;;;;;5031744;28;20159;-76
2023/01/24 07:44:49;;;;;;;31.87;11.60;;;;;;;;;;5031286;28;20472;-79
2023/01/24 07:47:14;;;;;;;27.07;10.77;;;;;;;;;;5026443;28;20136;-74
2023/01/24 07:49:40;;;;;;;30.33;12.30;;;;;;;;;;5026697;28;20060;-78
2023/01/24 07:52:06;;;;;;;29.77;11.53;;;;;;;;;;5012252;28;20090;-78
2023/01/24 07:54:33;;;;;;;25.07;10.93;;;;;;;;;;5028748;28;20542;-78
2023/01/24 07:57:00;;;;;;;32.03;11.70;;;;;;;;;;5022726;28;20025;-78
2023/01/24 07:59:26;;;;;;;26.57;11.50;;;;;;;;;;5023807;28;20108;-78
2023/01/24 08:01:52;;;;;;;24.97;10.60;;;;;;;;;;5025494;28;20116;-79
2023/01/24 08:04:17;;;;;;;32.67;11.97;;;;;;;;;;5017968;28;20064;-79
2023/01/24 08:07:16;;;;;;;28.60;12.50;;;;;;;;;;5028013;28;20037;-78
2023/01/24 08:09:29;;;;;;;31.47;11.47;;;;;;;;;;5023764;28;20037;-80
2023/01/24 08:11:55;;;;;;;29.93;12.77;;;;;;;;;;5026833;28;20343;-78
2023/01/24 08:14:21;;;;;;;26.53;11.13;;;;;;;;;;5020703;28;20653;-79
2023/01/24 08:16:48;;;;;;;30.70;11.90;;;;;;;;;;5021124;28;20040;-78
2023/01/24 08:19:13;;;;;;;28.13;11.43;;;;;;;;;;5021124;28;20037;-79
2023/01/24 08:21:39;;;;;;;26.73;11.60;;;;;;;;;;5017157;28;20041;-78
2023/01/24 08:24:05;;;;;;;26.67;11.27;;;;;;;;;;5025227;28;20037;-79
2023/01/24 08:26:30;;;;;;;31.17;11.40;;;;;;;;;;5026124;28;20045;-78
2023/01/24 08:28:56;;;;;;;27.87;12.67;;;;;;;;;;5022036;28;20095;-79
2023/01/24 08:31:21;;;;;;;25.10;11.63;;;;;;;;;;5025281;28;20125;-78
2023/01/24 08:33:47;;;;;;;32.67;11.13;;;;;;;;;;5020198;28;20025;-80
2023/01/24 08:36:12;;;;;;;27.33;10.67;;;;;;;;;;5024164;28;20120;-80
2023/01/24 08:38:38;;;;;;;25.53;10.00;;;;;;;;;;5023914;28;20537;-78
2023/01/24 08:41:04;;;;;;;37.30;14.10;;;;;;;;;;5024489;28;20041;-80
2023/01/24 08:43:30;;;;;;;32.27;13.30;;;;;;;;;;5022389;28;20037;-81
2023/01/24 08:45:56;;;;;;;30.87;12.77;;;;;;;;;;5026008;28;20026;-79
2023/01/24 08:48:22;;;;;;;22.77;10.23;;;;;;;;;;5030220;28;20026;-80
2023/01/24 08:50:49;;;;;;;33.37;13.13;;;;;;;;;;5023111;28;20087;-79
2023/01/24 08:53:15;;;;;;;32.20;12.60;;;;;;;;;;5021479;28;20100;-80
2023/01/24 08:55:40;;;;;;;26.40;11.47;;;;;;;;;;5028384;28;20037;-79
2023/01/24 08:58:06;;;;;;;30.73;12.17;;;;;;;;;;5026134;28;20095;-78
2023/01/24 09:00:32;;;;;;;33.13;12.70;;;;;;;;;;5031798;28;20500;-78
2023/01/24 09:03:00;;;;;;;26.03;12.60;;;;;;;;;;5026417;28;20033;-77
2023/01/24 09:05:26;;;;;;;27.60;11.90;;;;;;;;;;5027474;28;20048;-77
2023/01/24 09:07:52;;;;;;;28.30;12.07;;;;;;;;;;5029840;28;20481;-77
2023/01/24 09:10:17;;;;;;;33.10;12.17;;;;;;;;;;5009365;28;20080;-78
2023/01/24 09:12:43;;;;;;;34.17;14.33;;;;;;;;;;5024271;28;20033;-78
2023/01/24 09:15:09;;;;;;;25.53;12.23;;;;;;;;;;5025176;28;20242;-79
2023/01/24 09:17:36;;;;;;;25.23;12.53;;;;;;;;;;5021581;28;20065;-77
2023/01/24 09:20:05;;;;;;;27.43;11.93;;;;;;;;;;5028831;28;20037;-77
2023/01/24 09:22:33;;;;;;;24.83;11.23;;;;;;;;;;5025501;28;20037;-78
2023/01/24 09:24:59;;;;;;;29.17;12.33;;;;;;;;;;5023301;28;20029;-75
2023/01/24 09:27:24;;;;;;;25.73;12.33;;;;;;;;;;5025185;28;20044;-77
2023/01/24 09:29:50;;;;;;;33.50;13.10;;;;;;;;;;5029819;28;20033;-75
2023/01/24 09:32:16;;;;;;;30.43;12.00;;;;;;;;;;5027346;28;20029;-78
2023/01/24 09:34:46;;;;;;;23.27;11.53;;;;;;;;;;5020382;28;20033;-79
2023/01/24 09:37:23;;;;;;;25.67;11.10;;;;;;;;;;5025618;28;20497;-79
2023/01/24 09:39:50;;;;;;;31.17;12.20;;;;;;;;;;5022208;28;20111;-76
2023/01/24 09:42:24;;;;;;;27.93;11.70;;;;;;;;;;5022061;28;20029;-77
2023/01/24 09:45:08;;;;;;;52.07;20.50;;;;;;;;;;5021464;28;20067;-78
2023/01/24 09:48:12;;;;;;;29.90;13.23;;;;;;;;;;5021462;28;20164;-76
2023/01/24 09:50:43;;;;;;;25.43;10.97;;;;;;;;;;5005032;28;20049;-74
2023/01/24 09:53:26;;;;;;;28.48;12.02;;;;;;;;;;5025194;28;20048;-78
2023/01/24 09:55:53;;;;;;;34.13;14.47;;;;;;;;;;5006697;28;20041;-79
2023/01/24 09:58:35;;;;;;;29.50;12.83;;;;;;;;;;5026448;28;20036;-81
2023/01/24 10:01:05;;;;;;;;;;;;;;;;;;5017167;28;20490;-78
2023/01/24 10:03:32;;;;;;;26.10;11.07;;;;;;;;;;5016015;28;19921;-77
2023/01/24 10:06:16;;;;;;;28.57;11.40;;;;;;;;;;5020899;28;20045;-78
2023/01/24 10:09:18;;;;;;;29.13;11.77;;;;;;;;;;5023632;28;20060;-77
2023/01/24 10:12:23;;;;;;;32.10;11.87;;;;;;;;;;5021654;28;20037;-77
2023/01/24 10:14:48;;;;;;;22.17;10.73;;;;;;;;;;5018331;28;20431;-77
2023/01/24 10:17:23;;;;;;;23.70;10.57;;;;;;;;;;5025998;28;20040;-74
2023/01/24 10:20:31;;;;;;;27.63;11.70;;;;;;;;;;5024979;28;20519;-79
2023/01/24 10:23:22;;;;;;;28.57;11.30;;;;;;;;;;4995523;28;20054;-79
2023/01/24 10:26:14;;;;;;;66.27;20.37;;;;;;;;;;5027162;28;20037;-74
2023/01/24 10:28:50;;;;;;;29.25;12.05;;;;;;;;;;5028079;28;20026;-81
2023/01/24 10:31:41;;;;;;;27.00;12.37;;;;;;;;;;5025073;28;20040;-77
2023/01/24 10:34:19;;;;;;;28.20;10.77;;;;;;;;;;5022608;28;20029;-77
2023/01/24 10:36:52;;;;;;;28.20;12.40;;;;;;;;;;5025749;28;20025;-76
2023/01/24 10:39:17;;;;;;;30.07;12.50;;;;;;;;;;5019827;28;20408;-79
2023/01/24 10:41:43;;;;;;;27.70;12.20;;;;;;;;;;5025061;28;20029;-78
2023/01/24 10:44:34;;;;;;;25.83;11.23;;;;;;;;;;5024808;28;20033;-77
2023/01/24 10:47:37;;;;;;;25.90;11.70;;;;;;;;;;5026921;28;20498;-77
2023/01/24 10:50:09;;;;;;;23.57;11.50;;;;;;;;;;5024636;28;20055;-79
2023/01/24 10:52:38;;;;;;;34.55;12.68;;;;;;;;;;5022438;28;20135;-79
2023/01/24 10:55:41;;;;;;;28.40;11.50;;;;;;;;;;5022677;28;20061;-79
2023/01/24 10:58:26;;;;;;;27.53;12.37;;;;;;;;;;5024838;28;20029;-78
2023/01/24 11:00:58;;;;;;;28.40;11.93;;;;;;;;;;5025888;28;20394;-76
2023/01/24 11:03:28;;;;;;;24.95;11.55;;;;;;;;;;5021834;28;20148;-75
2023/01/24 11:05:58;;;;;;;30.43;12.27;;;;;;;;;;5025820;28;20512;-80
2023/01/24 11:08:33;;;;;;;25.60;11.37;;;;;;;;;;5028695;28;20029;-78
2023/01/24 11:11:00;;;;;;;31.10;12.97;;;;;;;;;;5026574;28;20135;-78
2023/01/24 11:13:38;;;;;;;26.90;11.77;;;;;;;;;;5023257;28;20112;-78
2023/01/24 11:16:24;;;;;;;27.83;11.70;;;;;;;;;;5019393;28;20064;-79
2023/01/24 11:19:15;;;;;;;26.57;11.47;;;;;;;;;;5018654;28;20117;-79
2023/01/24 11:21:52;;;;;;;33.53;12.88;;;;;;;;;;5017606;28;20048;-80
2023/01/24 11:24:20;;;;;;;29.03;12.70;;;;;;;;;;5024744;28;20102;-79
2023/01/24 11:27:13;;;;;;;28.00;11.67;;;;;;;;;;5027189;28;20021;-78
2023/01/24 11:29:40;;;;;;;30.53;13.23;;;;;;;;;;5024562;28;20149;-80
2023/01/24 11:32:58;;;;;;;26.90;12.47;;;;;;;;;;5022495;28;20025;-79
2023/01/24 11:35:31;;;;;;;54.77;15.17;;;;;;;;;;5004473;28;20036;-80
2023/01/24 11:38:24;;;;;;;38.70;14.47;;;;;;;;;;5013465;28;20033;-79
2023/01/24 11:41:11;;;;;;;;;;;;;;;;;;5026757;28;20136;-78
2023/01/24 11:43:57;;;;;;;34.13;13.97;;;;;;;;;;5071840;28;20380;-81
2023/01/24 11:47:02;;;;;;;37.83;15.33;;;;;;;;;;5069370;28;20036;-81
2023/01/24 11:50:01;;;;;;;31.87;13.40;;;;;;;;;;5070411;28;20476;-79
2023/01/24 11:52:49;;;;;;;32.53;15.00;;;;;;;;;;5069126;28;20061;-81
2023/01/24 11:55:38;;;;;;;38.50;16.43;;;;;;;;;;5069079;28;20111;-80
2023/01/24 11:58:15;;;;;;;32.87;15.03;;;;;;;;;;5070461;28;20020;-79
2023/01/24 12:01:05;;;;;;;36.57;14.97;;;;;;;;;;5069779;28;20044;-80
2023/01/24 12:03:41;;;;;;;31.43;13.13;;;;;;;;;;5068594;28;20358;-79
2023/01/24 12:06:15;;;;;;;42.07;13.23;;;;;;;;;;5070727;28;20032;-78
2023/01/24 12:08:46;;;;;;;28.43;12.60;;;;;;;;;;5069309;28;20435;-84
2023/01/24 12:11:25;;;;;;;29.10;13.02;;;;;;;;;;5071550;28;20080;-83
2023/01/24 12:13:59;;;;;;;31.63;13.00;;;;;;;;;;5071443;28;20025;-82
2023/01/24 12:16:58;;;;;;;34.80;13.33;;;;;;;;;;5070302;28;20028;-82
2023/01/24 12:20:15;;;;;;;24.27;11.40;;;;;;;;;;5070769;28;20039;-73
2023/01/24 12:22:45;;;;;;;31.70;11.47;;;;;;;;;;5031426;28;20096;-80
2023/01/24 12:25:21;;;;;;;30.90;15.03;;;;;;;;;;5066439;28;20124;-80
2023/01/24 12:27:48;;;;;;;26.60;11.23;;;;;;;;;;5070231;28;20483;-76
2023/01/24 12:30:30;;;;;;;29.57;11.63;;;;;;;;;;5070840;28;20105;-81
2023/01/24 12:33:17;;;;;;;24.80;10.87;;;;;;;;;;5068908;28;20025;-77
2023/01/24 12:35:48;;;;;;;24.70;10.97;;;;;;;;;;5071201;28;20029;-75
2023/01/24 12:38:17;;;;;;;29.50;11.23;;;;;;;;;;5070111;28;20025;-82
2023/01/24 12:40:42;;;;;;;33.60;17.03;;;;;;;;;;5068427;28;20033;-81
2023/01/24 12:43:17;;;;;;;26.00;11.50;;;;;;;;;;5069371;28;20143;-77
2023/01/24 12:46:25;;;;;;;26.67;10.87;;;;;;;;;;5071082;28;20032;-78
2023/01/24 12:49:11;;;;;;;26.37;11.23;;;;;;;;;;5067320;28;20105;-77
2023/01/24 12:51:51;;;;;;;43.27;12.67;;;;;;;;;;5068634;28;20550;-82
2023/01/24 12:54:44;;;;;;;26.67;11.40;;;;;;;;;;5061760;28;20416;-83
2023/01/24 12:57:29;;;;;;;23.83;10.90;;;;;;;;;;5056050;28;20174;-75
2023/01/24 12:59:55;;;;;;;24.20;10.70;;;;;;;;;;5056187;28;20107;-79
2023/01/24 13:02:39;;;;;;;30.03;10.97;;;;;;;;;;5056430;28;20036;-78
2023/01/24 13:05:26;;;;;;;26.63;11.37;;;;;;;;;;5054603;28;20029;-76
2023/01/24 13:08:15;;;;;;;29.90;10.93;;;;;;;;;;5055499;28;20082;-79
2023/01/24 13:11:14;;;;;;;25.63;12.33;;;;;;;;;;5054752;28;20033;-79
2023/01/24 13:13:48;;;;;;;28.00;11.33;;;;;;;;;;5057353;28;20494;-84
2023/01/24 13:16:36;;;;;;;29.10;11.03;;;;;;;;;;5055609;28;20032;-83
2023/01/24 13:19:20;;;;;;;27.30;11.63;;;;;;;;;;5056615;28;20424;-83
2023/01/24 13:21:55;;;;;;;30.20;12.27;;;;;;;;;;5054686;28;20033;-79
2023/01/24 13:24:42;;;;;;;30.47;14.30;;;;;;;;;;5055785;28;20091;-75
2023/01/24 13:27:50;;;;;;;31.70;12.53;;;;;;;;;;5055636;28;20048;-76
2023/01/24 13:30:26;;;;;;;19.30;9.30;;;;;;;;;;5053875;28;20040;-81
2023/01/24 13:32:53;;;;;;;22.27;9.63;;;;;;;;;;5054682;28;20078;-77
2023/01/24 13:35:21;;;;;;;24.70;10.57;;;;;;;;;;5055410;28;20050;-80
2023/01/24 13:38:01;;;;;;;25.33;11.47;;;;;;;;;;5054041;28;20028;-84
2023/01/24 13:40:30;;;;;;;26.37;11.17;;;;;;;;;;5053966;28;20037;-81
2023/01/24 13:42:57;;;;;;;26.47;11.13;;;;;;;;;;5053259;28;20049;-81
2023/01/24 13:45:25;;;;;;;29.10;10.83;;;;;;;;;;5037098;28;20480;-80
2023/01/24 13:47:52;;;;;;;26.80;10.87;;;;;;;;;;5055834;28;20358;-82
2023/01/24 13:50:23;;;;;;;34.43;13.17;;;;;;;;;;5055175;28;20060;-78
2023/01/24 13:52:58;;;;;;;30.50;11.97;;;;;;;;;;5054154;28;20060;-80
2023/01/24 13:55:24;;;;;;;20.83;9.47;;;;;;;;;;5054386;28;20029;-83
2023/01/24 13:58:08;;;;;;;25.47;10.13;;;;;;;;;;5053760;28;20029;-76
2023/01/24 14:00:51;;;;;;;31.77;13.43;;;;;;;;;;5054648;28;20462;-78
2023/01/24 14:03:22;;;;;;;33.07;14.03;;;;;;;;;;5052914;28;20036;-79
2023/01/24 14:06:04;;;;;;;31.47;12.47;;;;;;;;;;5052141;28;20042;-81
2023/01/24 14:08:30;;;;;;;30.42;11.95;;;;;;;;;;5053161;28;20091;-81
2023/01/24 14:11:04;;;;;;;32.63;13.50;;;;;;;;;;5055040;28;20028;-80
2023/01/24 14:13:56;;;;;;;35.73;14.63;;;;;;;;;;5053655;28;20017;-77
2023/01/24 14:16:27;;;;;;;48.63;14.80;;;;;;;;;;5056127;28;20029;-80
2023/01/24 14:18:57;;;;;;;37.70;14.93;;;;;;;;;;5053338;28;20033;-81
2023/01/24 14:21:27;;;;;;;36.73;14.63;;;;;;;;;;5054417;28;20029;-81
2023/01/24 14:24:01;;;;;;;33.90;13.10;;;;;;;;;;5053095;28;20365;-76
2023/01/24 14:26:33;;;;;;;31.80;14.13;;;;;;;;;;5054582;28;20033;-79
2023/01/24 14:29:04;;;;;;;38.83;15.10;;;;;;;;;;5054769;28;20500;-78
2023/01/24 14:31:36;;;;;;;33.27;14.37;;;;;;;;;;5055565;28;20032;-78
2023/01/24 14:34:24;;;;;;;36.03;14.27;;;;;;;;;;5053903;28;20113;-77
2023/01/24 14:37:08;;;;;;;33.57;13.77;;;;;;;;;;5054391;28;20025;-84
2023/01/24 14:39:34;;;;;;;99.73;17.10;;;;;;;;;;5054824;28;20472;-81
2023/01/24 14:42:05;;;;;;;34.53;11.93;;;;;;;;;;5053215;28;20094;-82
2023/01/24 14:44:36;;;;;;;32.17;12.37;;;;;;;;;;5055353;28;20090;-81
2023/01/24 14:47:25;;;;;;;35.90;14.67;;;;;;;;;;5052681;28;20517;-78
2023/01/24 14:49:55;;;;;;;38.37;14.40;;;;;;;;;;5053429;28;20082;-77
2023/01/24 14:52:23;;;;;;;32.23;14.30;;;;;;;;;;5054037;28;20021;-78
2023/01/24 14:54:53;;;;;;;38.37;13.17;;;;;;;;;;5052624;28;20091;-83
2023/01/24 14:57:33;;;;;;;41.20;13.90;;;;;;;;;;5052716;28;20037;-81
2023/01/24 15:00:10;;;;;;;35.37;15.77;;;;;;;;;;5052259;28;20037;-76
2023/01/24 15:02:37;;;;;;;27.67;11.10;;;;;;;;;;5053365;28;20114;-80
2023/01/24 15:05:23;;;;;;;36.40;15.47;;;;;;;;;;5052208;28;20086;-79
2023/01/24 15:07:48;;;;;;;32.43;12.87;;;;;;;;;;5052299;28;20021;-76
2023/01/24 15:10:18;;;;;;;33.07;13.50;;;;;;;;;;5052052;28;20100;-82
2023/01/24 15:12:46;;;;;;;32.47;14.10;;;;;;;;;;5036540;28;20025;-82
2023/01/24 15:15:17;;;;;;;31.40;12.83;;;;;;;;;;5053944;28;20079;-78
2023/01/24 15:17:46;;;;;;;37.90;14.90;;;;;;;;;;5051776;28;20028;-83
2023/01/24 15:20:18;;;;;;;35.90;14.57;;;;;;;;;;5053514;28;20104;-82
2023/01/24 15:22:49;;;;;;;38.10;14.63;;;;;;;;;;5051885;28;20021;-77